Time;durP1;ratioP1;P1;durP2;ratioP2;P2;SDS_P1;SDS_P2;PMS_P1;PMS_P2;Temp;Humidity;BMP_temperature;BMP_pressure;BME280_temperature;BME280_humidity;BME280_pressure;Samples;Min_cycle;Max_cycle;Signal;HPM_P1;HPM_P2
2022/11/02 00:04:06;;;;;;;12.88;3.35;;;;;;;11.69;100.00;101238.00;10587355;28;20035;-71
2022/11/02 00:09:07;;;;;;;2.85;1.95;;;;;;;11.65;100.00;101240.28;10586188;28;20063;-74
2022/11/02 00:14:07;;;;;;;3.72;2.25;;;;;;;10.91;100.00;101279.38;10585460;28;20447;-74
2022/11/02 00:19:08;;;;;;;1.65;1.48;;;;;;;10.39;100.00;101255.16;10586446;28;20519;-75
2022/11/02 00:24:09;;;;;;;3.70;1.90;;;;;;;10.39;100.00;101231.63;10569281;28;20426;-74
2022/11/02 00:29:09;;;;;;;4.55;2.17;;;;;;;10.31;100.00;101204.69;10587517;28;20070;-73
2022/11/02 00:34:09;;;;;;;5.40;0.95;;;;;;;10.23;100.00;101226.38;10567907;28;20063;-73
2022/11/02 00:39:10;;;;;;;5.90;1.65;;;;;;;10.20;100.00;101211.34;10584993;28;20478;-73
2022/11/02 00:44:10;;;;;;;1.13;0.75;;;;;;;10.06;100.00;101225.75;10584721;28;20371;-73
2022/11/02 00:49:11;;;;;;;14.50;2.10;;;;;;;9.91;100.00;101227.59;10585342;28;20039;-73
2022/11/02 00:54:11;;;;;;;2.40;1.30;;;;;;;9.72;100.00;101210.88;10584128;28;20046;-72
2022/11/02 00:59:11;;;;;;;9.57;1.70;;;;;;;9.76;100.00;101205.94;10585356;28;20114;-72
2022/11/02 01:04:13;;;;;;;2.13;1.13;;;;;;;9.81;100.00;101210.78;10583211;28;20076;-72
2022/11/02 01:09:15;;;;;;;6.55;1.30;;;;;;;9.74;100.00;101224.22;10566071;28;20051;-72
2022/11/02 01:14:15;;;;;;;7.65;3.15;;;;;;;9.67;100.00;101217.88;10584310;28;20034;-71
2022/11/02 01:19:15;;;;;;;7.22;1.65;;;;;;;9.70;100.00;101209.38;10583511;28;20035;-72
2022/11/02 01:24:16;;;;;;;7.32;2.35;;;;;;;9.62;100.00;101223.81;10583928;28;20370;-72
2022/11/02 01:29:16;;;;;;;6.85;2.15;;;;;;;9.58;100.00;101217.09;10583056;28;20118;-72
2022/11/02 01:34:17;;;;;;;9.77;3.35;;;;;;;9.60;100.00;101215.03;10584629;28;20416;-71
2022/11/02 01:39:17;;;;;;;2.70;2.50;;;;;;;9.69;100.00;101213.09;10583278;28;20360;-71
2022/11/02 01:44:27;;;;;;;8.82;2.88;;;;;;;9.96;100.00;101203.53;10583625;28;20520;-72
2022/11/02 01:49:29;;;;;;;10.45;2.05;;;;;;;10.09;100.00;101198.31;10582728;28;20032;-72
2022/11/02 01:54:30;;;;;;;5.43;2.03;;;;;;;10.14;100.00;101197.72;10583283;28;20179;-72
2022/11/02 01:59:39;;;;;;;2.97;1.58;;;;;;;10.21;100.00;101225.72;10580930;28;20128;-71
2022/11/02 02:04:39;;;;;;;4.53;1.55;;;;;;;10.36;100.00;101221.19;10580766;28;20193;-71
2022/11/02 02:09:40;;;;;;;8.07;2.13;;;;;;;10.52;100.00;101211.16;10565578;28;20096;-71
2022/11/02 02:14:40;;;;;;;10.25;2.92;;;;;;;10.51;100.00;101191.38;10564200;28;20037;-71
2022/11/02 02:19:51;;;;;;;11.18;3.72;;;;;;;10.58;100.00;101227.50;10582684;28;20420;-71
2022/11/02 02:25:19;;;;;;;12.30;2.20;;;;;;;10.65;100.00;101233.00;10583142;28;20034;-71
2022/11/02 02:30:20;;;;;;;8.77;2.03;;;;;;;10.69;100.00;101224.31;10582563;28;20103;-71
2022/11/02 02:35:27;;;;;;;7.22;1.85;;;;;;;10.72;100.00;101228.50;10581750;28;20490;-71
2022/11/02 02:40:36;;;;;;;7.65;2.25;;;;;;;10.68;100.00;101221.78;10564255;28;20093;-71
2022/11/02 02:45:38;;;;;;;4.95;2.50;;;;;;;10.68;100.00;101224.50;10579958;28;20472;-71
2022/11/02 02:50:47;;;;;;;4.93;2.20;;;;;;;10.52;100.00;101227.41;10562975;28;20032;-71
2022/11/02 02:55:47;;;;;;;4.18;2.65;;;;;;;10.46;100.00;101240.69;10581327;28;20088;-72
2022/11/02 03:00:48;;;;;;;11.30;3.45;;;;;;;10.36;100.00;101239.28;10546339;28;20540;-71
2022/11/02 03:06:09;;;;;;;20.42;4.18;;;;;;;10.42;100.00;101243.97;10554201;28;20055;-71
2022/11/02 03:11:16;;;;;;;9.48;3.05;;;;;;;10.38;100.00;101243.50;10573033;28;20031;-71
2022/11/02 03:16:20;;;;;;;9.63;3.35;;;;;;;10.47;100.00;101246.94;10570680;28;20035;-71
2022/11/02 03:21:25;;;;;;;24.52;4.40;;;;;;;10.61;100.00;101250.66;10587604;28;20375;-72
2022/11/02 03:26:49;;;;;;;8.95;3.83;;;;;;;10.68;100.00;101268.66;10588744;28;20030;-71
2022/11/02 03:31:57;;;;;;;10.77;4.10;;;;;;;10.77;100.00;101258.56;10588479;28;20035;-71
2022/11/02 03:37:40;;;;;;;22.38;4.65;;;;;;;10.83;100.00;101279.47;10570196;28;20027;-71
2022/11/02 03:42:41;;;;;;;16.85;3.92;;;;;;;10.81;100.00;101281.53;10574157;28;20039;-72
2022/11/02 03:47:43;;;;;;;16.50;5.00;;;;;;;10.76;100.00;101283.97;10585921;28;20067;-71
2022/11/02 03:52:43;;;;;;;21.15;3.33;;;;;;;10.70;100.00;101312.66;10585661;28;20027;-71
2022/11/02 03:57:49;;;;;;;13.52;4.65;;;;;;;10.71;100.00;101300.78;10588146;28;20383;-70
2022/11/02 04:03:00;;;;;;;19.70;4.13;;;;;;;10.77;100.00;101310.03;10589307;28;20032;-71
2022/11/02 04:29:16;;;;;;;23.45;2.38;;;;;;;10.61;100.00;101405.03;10584913;28;20036;-71
2022/11/02 04:34:16;;;;;;;9.05;4.10;;;;;;;10.61;100.00;101405.03;10567618;28;20035;-71
2022/11/02 04:39:17;;;;;;;5.18;3.33;;;;;;;10.54;100.00;101421.19;10585679;27;20054;-71
2022/11/02 04:44:17;;;;;;;5.20;2.25;;;;;;;10.55;100.00;101444.50;10583523;28;20123;-71
2022/11/02 04:49:18;;;;;;;19.00;3.50;;;;;;;10.51;100.00;101439.66;10583985;28;20070;-71
2022/11/02 04:54:18;;;;;;;9.27;2.13;;;;;;;10.62;100.00;101453.56;10584201;28;20055;-71
2022/11/02 04:59:18;;;;;;;7.32;2.03;;;;;;;10.62;100.00;101448.16;10586188;28;20035;-71
2022/11/02 05:04:19;;;;;;;9.27;3.05;;;;;;;10.58;100.00;101481.22;10584597;28;20091;-71
2022/11/02 05:09:19;;;;;;;21.77;4.10;;;;;;;10.54;100.00;101494.28;10585336;28;20071;-71
2022/11/02 05:14:20;;;;;;;3.72;2.83;;;;;;;10.58;100.00;101505.59;10566217;28;20534;-72
2022/11/02 05:19:20;;;;;;;5.30;1.75;;;;;;;10.61;100.00;101511.50;10582968;28;20118;-71
2022/11/02 05:24:20;;;;;;;6.47;1.33;;;;;;;10.64;100.00;101515.72;10582223;28;20032;-71
2022/11/02 05:29:21;;;;;;;9.10;2.35;;;;;;;10.56;100.00;101523.88;10583949;28;20036;-72
2022/11/02 05:34:21;;;;;;;7.38;2.70;;;;;;;10.54;100.00;101534.91;10583026;28;20031;-70
2022/11/02 05:39:22;;;;;;;6.30;2.78;;;;;;;10.57;100.00;101541.84;10583131;28;20032;-70
2022/11/02 05:44:22;;;;;;;5.57;2.15;;;;;;;10.56;100.00;101559.97;10582263;28;20046;-72
2022/11/02 05:49:23;;;;;;;2.75;1.95;;;;;;;10.63;100.00;101571.75;10582934;28;20049;-72
2022/11/02 05:54:24;;;;;;;6.60;1.92;;;;;;;10.64;100.00;101583.41;10581382;28;20035;-71
2022/11/02 05:59:24;;;;;;;12.00;2.78;;;;;;;10.58;100.00;101595.81;10564375;28;20083;-71
2022/11/02 06:04:25;;;;;;;19.45;3.25;;;;;;;10.73;100.00;101606.72;10582716;28;20093;-70
2022/11/02 06:09:25;;;;;;;6.35;1.77;;;;;;;10.90;100.00;101612.84;10583558;28;20046;-70
2022/11/02 06:14:25;;;;;;;7.28;3.03;;;;;;;10.88;100.00;101631.13;10583527;28;20106;-69
2022/11/02 06:19:26;;;;;;;6.32;2.10;;;;;;;10.88;100.00;101637.41;10582949;28;20040;-69
2022/11/02 06:24:26;;;;;;;14.93;2.75;;;;;;;10.88;100.00;101647.38;10563748;28;20110;-69
2022/11/02 06:29:27;;;;;;;10.82;2.30;;;;;;;10.78;100.00;101658.47;10582073;28;20059;-69
2022/11/02 06:34:27;;;;;;;11.50;2.72;;;;;;;10.82;100.00;101667.94;10581661;28;20039;-69
2022/11/02 06:39:28;;;;;;;14.38;2.28;;;;;;;10.79;100.00;101687.28;10588924;28;20031;-69
2022/11/02 06:44:28;;;;;;;12.52;3.35;;;;;;;10.76;100.00;101694.91;10590696;28;20035;-68
2022/11/02 06:49:29;;;;;;;5.13;2.05;;;;;;;10.71;100.00;101704.41;10590423;28;20063;-69
2022/11/02 06:54:29;;;;;;;7.32;1.70;;;;;;;10.65;100.00;101720.53;10589312;28;20036;-69
2022/11/02 06:59:30;;;;;;;3.17;1.63;;;;;;;10.73;100.00;101735.91;10588760;28;20047;-69
2022/11/02 07:04:30;;;;;;;15.15;2.63;;;;;;;10.74;100.00;101746.56;10589167;28;20371;-69
2022/11/02 07:09:31;;;;;;;2.15;1.35;;;;;;;10.79;100.00;101754.16;10589842;28;20051;-69
2022/11/02 07:14:31;;;;;;;12.25;3.38;;;;;;;10.97;100.00;101752.00;10588816;28;20032;-69
2022/11/02 07:19:32;;;;;;;4.72;2.85;;;;;;;11.11;100.00;101769.38;10588656;28;20463;-69
2022/11/02 07:24:32;;;;;;;12.60;3.63;;;;;;;11.63;100.00;101774.88;10587375;28;20023;-69
2022/11/02 07:29:32;;;;;;;11.65;3.33;;;;;;;12.10;100.00;101790.06;10588273;28;20035;-69
2022/11/02 07:34:33;;;;;;;8.52;1.95;;;;;;;12.85;100.00;101795.47;10588687;28;20486;-69
2022/11/02 07:39:33;;;;;;;14.32;2.70;;;;;;;13.67;100.00;101793.22;10588471;28;20047;-69
2022/11/02 07:44:34;;;;;;;5.20;2.17;;;;;;;13.93;100.00;101805.38;10586813;28;20140;-69
2022/11/02 07:49:34;;;;;;;5.50;3.30;;;;;;;14.15;100.00;101798.81;10585516;28;20059;-69
2022/11/02 07:54:34;;;;;;;5.85;2.00;;;;;;;14.39;100.00;101810.31;10586909;27;20432;-69
2022/11/02 07:59:35;;;;;;;9.48;2.60;;;;;;;14.63;100.00;101817.16;10585978;28;20499;-69
2022/11/02 08:04:35;;;;;;;9.02;3.03;;;;;;;14.83;100.00;101822.69;10587169;28;20070;-69
2022/11/02 08:09:36;;;;;;;5.13;1.95;;;;;;;14.99;100.00;101837.88;10586419;28;20056;-69
2022/11/02 08:14:36;;;;;;;3.75;2.35;;;;;;;15.10;100.00;101840.88;10587432;28;20114;-69
2022/11/02 08:19:37;;;;;;;14.75;3.70;;;;;;;15.55;100.00;101843.91;10588058;28;20418;-69
2022/11/02 08:24:37;;;;;;;3.85;2.30;;;;;;;15.76;100.00;101839.34;10584538;28;20032;-69
2022/11/02 08:29:38;;;;;;;8.82;2.80;;;;;;;14.94;100.00;101849.41;10585121;28;20471;-69
2022/11/02 08:40:00;;;;;;;3.38;2.58;;;;;;;15.94;100.00;101853.22;10570622;28;20044;-70
2022/11/02 08:45:00;;;;;;;2.42;2.22;;;;;;;16.05;100.00;101849.03;10567183;28;20024;-69
2022/11/02 08:50:01;;;;;;;8.75;2.70;;;;;;;15.91;100.00;101870.03;10583762;28;20032;-69
2022/11/02 08:55:01;;;;;;;9.02;2.80;;;;;;;16.05;100.00;101873.63;10582986;28;20035;-70
2022/11/02 09:00:02;;;;;;;5.60;2.63;;;;;;;16.25;100.00;101876.34;10584021;28;20036;-70
2022/11/02 09:05:02;;;;;;;10.98;3.25;;;;;;;16.52;100.00;101880.72;10584733;28;20475;-70
2022/11/02 09:10:03;;;;;;;9.38;3.83;;;;;;;17.00;100.00;101886.94;10565887;28;20420;-70
2022/11/02 09:15:04;;;;;;;4.03;2.40;;;;;;;16.41;100.00;101897.78;10584271;28;20050;-70
2022/11/02 09:20:05;;;;;;;3.90;1.92;;;;;;;17.10;100.00;101885.44;10599795;27;20036;-70
2022/11/02 09:25:06;;;;;;;14.77;3.38;;;;;;;17.64;100.00;101889.59;10583008;28;20111;-70
2022/11/02 09:30:07;;;;;;;4.05;3.25;;;;;;;17.84;100.00;101911.41;10583503;28;20382;-70
2022/11/02 09:35:09;;;;;;;13.05;2.80;;;;;;;18.02;100.00;101904.28;10566051;28;20352;-70
2022/11/02 09:40:10;;;;;;;11.23;2.70;;;;;;;17.37;100.00;101902.56;10582611;28;20042;-70
2022/11/02 09:45:15;;;;;;;12.90;4.20;;;;;;;17.65;100.00;101917.81;10565983;28;20036;-70
2022/11/02 09:50:32;;;;;;;5.57;2.55;;;;;;;17.65;100.00;101920.53;10548065;28;20027;-70
2022/11/02 09:55:34;;;;;;;15.25;3.35;;;;;;;17.98;100.00;101917.59;10566099;28;20513;-70
2022/11/02 10:00:35;;;;;;;1.90;1.45;;;;;;;18.04;100.00;101924.94;10564689;28;20035;-70
2022/11/02 10:05:50;;;;;;;3.92;2.45;;;;;;;18.12;100.00;101916.47;10547611;28;20100;-70
2022/11/02 10:11:20;;;;;;;3.13;1.38;;;;;;;18.59;100.00;101922.34;10565472;28;20114;-72
2022/11/02 10:16:23;;;;;;;7.63;2.20;;;;;;;18.72;100.00;101920.53;10581167;28;20073;-71
2022/11/02 10:21:26;;;;;;;9.70;2.00;;;;;;;17.26;100.00;101932.53;10564104;28;20036;-70
2022/11/02 10:26:33;;;;;;;7.57;2.08;;;;;;;15.86;100.00;101953.66;10565540;28;20030;-71
2022/11/02 10:31:33;;;;;;;4.00;2.53;;;;;;;16.30;100.00;101953.06;10548257;28;20023;-70
2022/11/02 10:37:02;;;;;;;6.03;2.50;;;;;;;16.50;100.00;101969.50;10548503;28;20446;-71
2022/11/02 10:42:33;;;;;;;7.55;2.80;;;;;;;17.63;100.00;101961.84;10581555;28;20036;-71
2022/11/02 10:47:45;;;;;;;10.80;3.08;;;;;;;17.73;100.00;101953.16;10564789;28;20088;-71
2022/11/02 10:52:46;;;;;;;5.55;3.03;;;;;;;17.93;100.00;101966.75;10565697;28;20351;-71
2022/11/02 10:57:46;;;;;;;3.10;2.22;;;;;;;18.07;100.00;101971.09;10580957;28;20043;-71
2022/11/02 11:03:00;;;;;;;8.93;2.30;;;;;;;18.52;100.00;101954.50;10581091;28;20027;-70
2022/11/02 11:08:01;;;;;;;4.88;2.13;;;;;;;18.23;92.47;101947.78;10581777;28;20048;-71
2022/11/02 11:13:01;;;;;;;6.82;3.05;;;;;;;18.31;100.00;101933.81;10581254;28;20519;-70
2022/11/02 11:18:09;;;;;;;15.75;2.47;;;;;;;18.32;95.19;101937.38;10580264;28;20035;-71
2022/11/02 11:23:23;;;;;;;3.45;2.55;;;;;;;18.21;100.00;101957.28;10566546;28;20363;-71
2022/11/02 11:28:41;;;;;;;7.78;3.83;;;;;;;18.06;90.93;101965.81;10587206;28;20038;-71
2022/11/02 11:33:48;;;;;;;11.70;2.83;;;;;;;18.07;100.00;101962.03;10572968;28;20403;-71
2022/11/02 11:38:49;;;;;;;15.23;3.42;;;;;;;18.10;100.00;101946.00;10588926;28;20023;-71
2022/11/02 11:43:50;;;;;;;13.00;3.13;;;;;;;18.04;98.83;101946.03;10589392;28;20119;-71
2022/11/02 11:48:52;;;;;;;9.38;3.35;;;;;;;17.92;100.00;101953.28;10586965;28;20024;-71
2022/11/02 11:54:04;;;;;;;9.07;3.10;;;;;;;18.11;100.00;101936.69;10586764;28;20035;-73
2022/11/02 11:59:23;;;;;;;11.20;4.07;;;;;;;18.24;100.00;101935.75;10588103;28;20496;-71
2022/11/02 12:04:27;;;;;;;3.13;2.42;;;;;;;18.18;100.00;101933.91;10586805;28;20447;-71
2022/11/02 12:09:32;;;;;;;11.27;3.25;;;;;;;17.98;98.94;101923.09;10589918;28;20447;-71
2022/11/02 12:15:08;;;;;;;12.70;4.45;;;;;;;17.99;100.00;101921.19;10569700;28;20344;-71
2022/11/02 12:20:45;;;;;;;6.53;2.90;;;;;;;18.02;100.00;101920.75;10586821;28;20487;-71
2022/11/02 12:26:08;;;;;;;6.03;2.55;;;;;;;17.99;100.00;101915.69;10585154;28;20023;-71
2022/11/02 12:31:23;;;;;;;8.38;2.50;;;;;;;17.75;96.92;101915.41;10585055;28;20475;-71
2022/11/02 12:36:36;;;;;;;7.25;2.88;;;;;;;17.69;98.80;101916.31;10583795;28;20032;-71
2022/11/02 12:41:49;;;;;;;15.57;2.97;;;;;;;17.59;99.62;101902.25;10585317;28;20030;-71
2022/11/02 12:47:22;;;;;;;6.85;3.33;;;;;;;17.37;100.00;101897.09;10584621;28;20031;-71
2022/11/02 12:52:48;;;;;;;2.67;2.42;;;;;;;17.52;93.83;101879.53;10585881;28;20027;-71
2022/11/02 12:57:48;;;;;;;12.38;3.42;;;;;;;17.10;93.09;101879.09;10584408;28;20085;-71
2022/11/02 13:03:12;;;;;;;4.40;2.95;;;;;;;16.64;100.00;101885.53;10583512;28;20485;-71
2022/11/02 13:08:31;;;;;;;7.63;2.53;;;;;;;16.53;99.31;101878.84;10583165;28;20059;-71
2022/11/02 13:13:44;;;;;;;4.68;2.55;;;;;;;16.22;88.25;101868.56;10584349;28;20039;-71
2022/11/02 13:18:49;;;;;;;5.30;2.42;;;;;;;15.45;97.74;101870.78;10566123;28;20031;-71
2022/11/02 13:23:51;;;;;;;14.88;2.88;;;;;;;15.47;99.72;101870.56;10565410;28;20031;-71
2022/11/02 13:28:53;;;;;;;11.60;3.47;;;;;;;15.43;100.00;101864.69;10565167;28;20027;-71
2022/11/02 13:33:55;;;;;;;9.13;3.50;;;;;;;14.92;100.00;101858.84;10565995;28;20359;-71
2022/11/02 13:39:01;;;;;;;17.75;3.53;;;;;;;14.61;100.00;101851.94;10564858;28;20031;-71
2022/11/02 13:44:22;;;;;;;4.30;3.75;;;;;;;14.45;100.00;101842.19;10567120;28;20031;-71
2022/11/02 13:49:52;;;;;;;15.23;4.75;;;;;;;14.47;100.00;101833.81;10566178;28;20039;-71
2022/11/02 13:54:54;;;;;;;7.13;3.28;;;;;;;14.37;100.00;101828.72;10580418;28;20054;-71
2022/11/02 13:59:55;;;;;;;7.22;2.92;;;;;;;14.45;100.00;101822.25;10566527;28;20100;-71
2022/11/02 14:04:55;;;;;;;11.48;5.45;;;;;;;14.27;100.00;101822.81;10581344;28;20143;-71
2022/11/02 14:10:25;;;;;;;3.17;2.90;;;;;;;14.14;100.00;101829.84;10582731;28;20071;-71
2022/11/02 14:15:29;;;;;;;16.67;4.53;;;;;;;14.11;100.00;101804.88;10568341;28;20071;-70
2022/11/02 14:20:36;;;;;;;22.23;4.25;;;;;;;14.28;100.00;101791.78;10581603;28;20451;-71
2022/11/02 14:25:56;;;;;;;8.35;2.63;;;;;;;14.22;99.16;101807.03;10580759;28;20034;-71
2022/11/02 14:31:03;;;;;;;8.82;3.63;;;;;;;14.08;100.00;101806.13;10580933;28;20032;-71
2022/11/02 14:36:08;;;;;;;13.13;4.97;;;;;;;13.93;100.00;101799.91;10582057;28;20092;-72
2022/11/02 14:41:54;;;;;;;11.40;3.50;;;;;;;13.76;100.00;101788.47;10581116;28;20038;-71
2022/11/02 14:46:57;;;;;;;18.45;3.20;;;;;;;13.52;100.00;101787.00;10578869;28;20479;-71
2022/11/02 14:52:22;;;;;;;13.05;4.18;;;;;;;13.33;100.00;101783.06;10580624;28;20042;-71
2022/11/02 14:57:30;;;;;;;15.90;3.90;;;;;;;13.20;100.00;101780.16;10585956;28;20078;-71
2022/11/02 15:02:34;;;;;;;9.10;3.90;;;;;;;13.12;100.00;101773.00;10574014;28;20113;-70
2022/11/02 15:07:41;;;;;;;16.02;3.45;;;;;;;13.08;100.00;101776.28;10575010;28;20131;-70
2022/11/02 15:12:42;;;;;;;9.20;4.00;;;;;;;12.96;100.00;101776.78;10588243;28;20118;-71
2022/11/02 15:17:43;;;;;;;17.00;3.63;;;;;;;12.97;100.00;101766.75;10553556;28;20090;-71
2022/11/02 15:22:44;;;;;;;11.67;3.83;;;;;;;12.89;100.00;101769.56;10588819;28;20047;-70
2022/11/02 15:27:45;;;;;;;18.00;3.80;;;;;;;12.84;100.00;101763.88;10570403;28;20287;-71
2022/11/02 15:32:52;;;;;;;15.15;3.95;;;;;;;12.68;100.00;101752.19;10588857;28;20036;-70
2022/11/02 15:37:57;;;;;;;10.98;3.15;;;;;;;12.73;100.00;101752.47;10587123;28;20028;-71
2022/11/02 15:43:10;;;;;;;4.40;3.28;;;;;;;12.66;100.00;101748.81;10569886;28;20024;-71
2022/11/02 15:48:29;;;;;;;21.25;3.30;;;;;;;12.62;100.00;101744.81;10569795;28;20095;-71
2022/11/02 15:53:48;;;;;;;12.82;2.55;;;;;;;12.61;98.75;101734.97;10588443;28;20032;-71
2022/11/02 15:59:10;;;;;;;22.15;3.75;;;;;;;12.61;100.00;101734.97;10586532;28;20081;-71
2022/11/02 16:04:18;;;;;;;8.02;3.60;;;;;;;12.58;100.00;101721.78;10589395;28;20112;-71
2022/11/02 16:09:39;;;;;;;7.32;3.30;;;;;;;12.51;100.00;101718.16;10584752;28;20050;-71
2022/11/02 16:14:40;;;;;;;14.23;3.25;;;;;;;12.46;100.00;101705.13;10585532;28;20093;-71
2022/11/02 16:19:40;;;;;;;16.40;4.43;;;;;;;12.42;99.79;101711.13;10586020;28;20093;-70
2022/11/02 16:24:42;;;;;;;13.60;4.47;;;;;;;12.45;100.00;101716.19;10586344;28;20039;-71
2022/11/02 16:29:42;;;;;;;10.85;4.38;;;;;;;12.41;100.00;101706.72;10584669;28;20031;-71
2022/11/02 16:34:42;;;;;;;7.07;3.38;;;;;;;12.42;100.00;101703.81;10584798;28;20065;-71
2022/11/02 16:39:44;;;;;;;4.60;2.70;;;;;;;12.34;100.00;101696.59;10568574;28;20024;-71
2022/11/02 16:44:56;;;;;;;18.95;4.28;;;;;;;12.26;100.00;101704.88;10567782;28;20038;-71
2022/11/02 16:49:57;;;;;;;9.07;2.88;;;;;;;12.26;100.00;101699.44;10585035;28;20031;-71
2022/11/02 16:54:58;;;;;;;8.52;2.00;;;;;;;12.29;100.00;101714.53;10584318;28;20031;-71
2022/11/02 17:00:14;;;;;;;13.57;4.03;;;;;;;12.32;100.00;101698.69;10582956;28;20077;-71
2022/11/02 17:05:22;;;;;;;10.30;2.97;;;;;;;12.46;100.00;101699.69;10583481;28;20455;-71
2022/11/02 17:10:24;;;;;;;13.70;4.13;;;;;;;12.43;100.00;101691.91;10582944;28;20051;-70
2022/11/02 17:15:26;;;;;;;11.52;3.88;;;;;;;12.43;100.00;101683.75;10583083;28;20038;-71
2022/11/02 17:20:26;;;;;;;5.57;2.58;;;;;;;12.48;100.00;101684.03;10564615;28;20027;-71
2022/11/02 17:25:30;;;;;;;19.88;3.95;;;;;;;12.50;100.00;101683.84;10583071;28;20040;-71
2022/11/02 17:30:33;;;;;;;11.65;2.30;;;;;;;12.49;100.00;101676.72;10549998;28;20032;-71
2022/11/02 17:35:34;;;;;;;7.72;3.03;;;;;;;12.51;100.00;101666.53;10585732;27;20031;-71
2022/11/02 17:40:34;;;;;;;8.25;3.22;;;;;;;12.59;100.00;101671.81;10582059;28;20395;-71
2022/11/02 17:45:36;;;;;;;14.73;3.38;;;;;;;12.51;100.00;101664.66;10582221;28;20030;-71
2022/11/02 17:50:37;;;;;;;4.50;2.90;;;;;;;12.44;100.00;101658.28;10583539;28;20397;-71
2022/11/02 17:55:38;;;;;;;10.65;3.95;;;;;;;12.44;98.99;101652.00;10565599;28;20037;-71
2022/11/02 18:00:38;;;;;;;3.53;1.52;;;;;;;12.54;100.00;101645.25;10589078;28;20088;-71
2022/11/02 18:05:38;;;;;;;4.78;2.20;;;;;;;12.49;98.01;101634.09;10582284;28;20115;-72
2022/11/02 18:10:40;;;;;;;6.30;2.70;;;;;;;12.54;99.61;101644.41;10581489;28;20133;-71
2022/11/02 18:15:41;;;;;;;12.90;3.13;;;;;;;12.50;97.65;101619.47;10581400;28;20374;-71
2022/11/02 18:20:42;;;;;;;23.55;2.85;;;;;;;12.47;97.53;101627.16;10547535;28;20024;-71
2022/11/02 18:25:42;;;;;;;8.48;2.75;;;;;;;12.45;97.64;101623.81;10563183;28;20034;-71
2022/11/02 18:30:43;;;;;;;12.88;3.50;;;;;;;12.46;98.31;101595.63;10582400;28;20042;-71
2022/11/02 18:35:44;;;;;;;4.65;3.03;;;;;;;12.44;96.25;101595.78;10590829;28;20080;-71
2022/11/02 18:40:44;;;;;;;8.13;4.43;;;;;;;12.41;94.11;101587.19;10588952;28;20034;-72
2022/11/02 18:45:45;;;;;;;11.93;3.45;;;;;;;12.42;96.07;101561.75;10589748;28;20034;-71
2022/11/02 18:50:45;;;;;;;5.22;2.10;;;;;;;12.38;96.48;101564.00;10590142;28;20035;-71
2022/11/02 18:55:45;;;;;;;5.68;2.38;;;;;;;12.33;94.89;101556.41;10591382;28;20435;-71
2022/11/02 19:00:46;;;;;;;8.95;3.15;;;;;;;12.36;95.85;101548.94;10588698;28;20043;-71
2022/11/02 19:11:07;;;;;;;16.20;3.58;;;;;;;12.31;96.20;101541.34;10589169;28;20060;-71
2022/11/02 19:16:07;;;;;;;11.07;4.18;;;;;;;12.27;94.00;101530.03;10587382;28;20522;-71
2022/11/02 19:21:08;;;;;;;4.53;2.95;;;;;;;12.34;96.03;101530.94;10588887;28;20042;-71
2022/11/02 19:26:08;;;;;;;11.60;3.60;;;;;;;12.37;97.72;101510.69;10588479;28;20038;-72
2022/11/02 19:31:09;;;;;;;9.55;4.53;;;;;;;12.34;96.72;101508.38;10590473;28;20037;-72
2022/11/02 19:36:09;;;;;;;3.67;2.80;;;;;;;12.28;94.86;101496.44;10588421;28;20443;-72
2022/11/02 19:41:12;;;;;;;4.63;1.70;;;;;;;12.28;94.64;101491.00;10587370;28;20059;-71
2022/11/02 19:46:17;;;;;;;20.73;5.25;;;;;;;12.32;95.23;101481.41;10584755;28;20028;-72
2022/11/02 19:51:27;;;;;;;9.20;3.63;;;;;;;12.32;95.27;101486.84;10569404;28;20031;-72
2022/11/02 19:56:29;;;;;;;18.63;3.80;;;;;;;12.28;95.43;101473.84;10590901;28;20031;-71
2022/11/02 20:01:34;;;;;;;13.40;4.75;;;;;;;12.33;95.20;101474.94;10587257;28;20462;-72
2022/11/02 20:06:39;;;;;;;20.98;4.45;;;;;;;12.28;95.54;101474.69;10585987;28;20114;-71
2022/11/02 20:11:43;;;;;;;14.32;4.57;;;;;;;12.31;97.49;101470.72;10568547;28;20039;-72
2022/11/02 20:16:43;;;;;;;3.95;3.03;;;;;;;12.32;96.17;101464.28;10585457;28;20036;-72
2022/11/02 20:21:44;;;;;;;6.50;3.33;;;;;;;12.31;97.66;101466.13;10553202;28;20034;-72
2022/11/02 20:26:44;;;;;;;5.30;2.17;;;;;;;12.21;94.20;101454.78;10588360;28;20047;-71
2022/11/02 20:31:45;;;;;;;11.07;4.45;;;;;;;12.21;94.18;101462.91;10552441;28;20122;-73
2022/11/02 20:36:46;;;;;;;13.65;2.72;;;;;;;12.24;95.18;101454.38;10587886;28;20032;-72
2022/11/02 20:41:46;;;;;;;8.98;3.55;;;;;;;12.25;95.74;101445.22;10585461;28;20436;-72
2022/11/02 20:46:47;;;;;;;6.68;5.20;;;;;;;12.19;92.25;101440.56;10586334;28;20070;-72
2022/11/02 20:51:50;;;;;;;15.77;4.00;;;;;;;12.30;94.62;101440.03;10585958;28;20082;-72
2022/11/02 20:56:50;;;;;;;10.32;4.47;;;;;;;12.33;94.81;101431.50;10584335;28;20023;-72
2022/11/02 21:01:51;;;;;;;8.75;3.58;;;;;;;12.31;94.82;101425.41;10567979;28;20106;-71
2022/11/02 21:06:51;;;;;;;15.88;4.32;;;;;;;12.35;94.64;101417.72;10583588;28;20063;-71
2022/11/02 21:17:11;;;;;;;14.15;4.03;;;;;;;12.29;96.23;101411.19;10584844;28;20455;-71
2022/11/02 21:22:12;;;;;;;11.52;3.22;;;;;;;12.25;94.22;101407.22;10566405;28;20035;-71
2022/11/02 21:27:12;;;;;;;12.15;4.90;;;;;;;12.22;94.42;101398.59;10566674;28;20028;-71
2022/11/02 21:32:13;;;;;;;10.35;3.15;;;;;;;12.18;94.54;101403.56;10566917;28;20387;-71
2022/11/02 21:37:14;;;;;;;6.65;3.80;;;;;;;12.16;95.35;101391.25;10551603;28;20066;-72
2022/11/02 21:42:14;;;;;;;5.50;3.13;;;;;;;12.13;94.87;101395.19;10566624;28;20122;-72
2022/11/02 21:47:14;;;;;;;10.50;4.85;;;;;;;12.18;95.70;101387.28;10589288;28;20027;-73
2022/11/02 21:52:15;;;;;;;10.98;3.70;;;;;;;12.17;96.18;101372.03;10565576;28;20039;-72
2022/11/02 21:57:15;;;;;;;14.77;4.13;;;;;;;12.18;97.17;101362.00;10564749;28;20024;-72
2022/11/02 22:02:17;;;;;;;20.77;4.32;;;;;;;12.20;95.33;101357.22;10584518;28;20473;-72
2022/11/02 22:07:21;;;;;;;14.25;4.10;;;;;;;12.21;95.25;101370.59;10563159;28;20388;-72
2022/11/02 22:17:40;;;;;;;10.23;4.38;;;;;;;12.13;96.29;101340.88;10581944;28;20040;-72
2022/11/02 22:22:40;;;;;;;14.45;4.22;;;;;;;12.05;95.31;101305.72;10582764;28;20461;-72
2022/11/02 22:27:40;;;;;;;7.93;3.00;;;;;;;12.11;95.36;101326.66;10581476;28;20098;-72
2022/11/02 22:32:41;;;;;;;15.00;3.45;;;;;;;12.12;95.11;101317.47;10580081;28;20024;-72
2022/11/02 22:43:00;;;;;;;22.48;4.82;;;;;;;12.04;93.94;101293.22;10581176;28;20443;-72
2022/11/02 22:48:00;;;;;;;7.55;4.43;;;;;;;12.06;94.23;101289.25;10564086;28;20036;-72
2022/11/02 22:53:01;;;;;;;13.10;3.38;;;;;;;11.99;94.48;101279.38;10579989;28;20065;-72
2022/11/02 22:58:01;;;;;;;7.30;3.38;;;;;;;12.02;94.78;101284.41;10582195;28;20043;-72
2022/11/02 23:03:01;;;;;;;12.65;5.03;;;;;;;12.05;95.89;101252.28;10581540;28;20453;-72
2022/11/02 23:08:02;;;;;;;8.63;3.45;;;;;;;12.01;95.36;101266.47;10581620;28;20139;-72
2022/11/02 23:13:02;;;;;;;11.57;4.10;;;;;;;11.97;96.35;101278.75;10563625;28;20138;-72
2022/11/02 23:18:03;;;;;;;11.98;2.72;;;;;;;12.01;96.14;101266.47;10584580;28;20039;-72
2022/11/02 23:33:41;;;;;;;10.45;4.47;;;;;;;12.01;96.56;101255.59;10587607;28;20118;-72
2022/11/02 23:44:10;;;;;;;20.48;4.55;;;;;;;12.03;97.54;101226.41;10587501;28;20028;-73
2022/11/02 23:49:11;;;;;;;8.83;2.93;;;;;;;11.99;97.19;101206.09;10588145;28;20425;-73
2022/11/02 23:59:30;;;;;;;13.57;2.78;;;;;;;11.91;97.48;101208.97;10586539;28;20466;-73
